sensor_id;sensor_type;location;lat;lon;timestamp;temperature;humidity
3648;DHT22;1840;48.892;15.312;2022-07-26T00:01:00;19.10;92.40
3648;DHT22;1840;48.892;15.312;2022-07-26T00:03:28;19.20;92.20
3648;DHT22;1840;48.892;15.312;2022-07-26T00:05:56;19.20;92.20
3648;DHT22;1840;48.892;15.312;2022-07-26T00:08:25;19.30;92.20
3648;DHT22;1840;48.892;15.312;2022-07-26T00:10:53;19.30;92.40
3648;DHT22;1840;48.892;15.312;2022-07-26T00:13:22;19.40;92.30
3648;DHT22;1840;48.892;15.312;2022-07-26T00:15:53;19.40;92.30
3648;DHT22;1840;48.892;15.312;2022-07-26T00:18:21;19.40;92.30
3648;DHT22;1840;48.892;15.312;2022-07-26T00:20:50;19.40;92.40
3648;DHT22;1840;48.892;15.312;2022-07-26T00:23:21;19.40;92.50
3648;DHT22;1840;48.892;15.312;2022-07-26T00:25:50;19.50;92.40
3648;DHT22;1840;48.892;15.312;2022-07-26T00:28:18;19.50;92.40
3648;DHT22;1840;48.892;15.312;2022-07-26T00:30:47;19.50;92.40
3648;DHT22;1840;48.892;15.312;2022-07-26T00:33:15;19.50;92.40
3648;DHT22;1840;48.892;15.312;2022-07-26T00:35:43;19.60;92.40
3648;DHT22;1840;48.892;15.312;2022-07-26T00:38:11;19.60;92.20
3648;DHT22;1840;48.892;15.312;2022-07-26T00:40:39;19.50;92.10
3648;DHT22;1840;48.892;15.312;2022-07-26T00:43:08;19.70;92.10
3648;DHT22;1840;48.892;15.312;2022-07-26T00:45:36;19.80;91.70
3648;DHT22;1840;48.892;15.312;2022-07-26T00:48:05;20.00;91.40
3648;DHT22;1840;48.892;15.312;2022-07-26T00:50:34;20.20;91.00
3648;DHT22;1840;48.892;15.312;2022-07-26T00:53:02;20.50;90.50
3648;DHT22;1840;48.892;15.312;2022-07-26T00:55:30;20.80;90.30
3648;DHT22;1840;48.892;15.312;2022-07-26T00:57:59;21.00;90.00
3648;DHT22;1840;48.892;15.312;2022-07-26T01:00:29;21.10;89.20
3648;DHT22;1840;48.892;15.312;2022-07-26T01:02:57;21.30;89.00
3648;DHT22;1840;48.892;15.312;2022-07-26T01:05:26;21.40;88.90
3648;DHT22;1840;48.892;15.312;2022-07-26T01:07:55;21.40;88.90
3648;DHT22;1840;48.892;15.312;2022-07-26T01:10:24;21.40;89.30
3648;DHT22;1840;48.892;15.312;2022-07-26T01:12:52;21.20;89.60
3648;DHT22;1840;48.892;15.312;2022-07-26T01:15:20;21.20;90.10
3648;DHT22;1840;48.892;15.312;2022-07-26T01:17:50;21.10;90.20
3648;DHT22;1840;48.892;15.312;2022-07-26T01:20:18;21.00;90.30
3648;DHT22;1840;48.892;15.312;2022-07-26T01:22:48;20.90;90.50
3648;DHT22;1840;48.892;15.312;2022-07-26T01:25:16;20.90;90.50
3648;DHT22;1840;48.892;15.312;2022-07-26T01:27:54;21.00;90.50
3648;DHT22;1840;48.892;15.312;2022-07-26T01:30:22;21.00;91.00
3648;DHT22;1840;48.892;15.312;2022-07-26T01:32:50;21.00;91.10
3648;DHT22;1840;48.892;15.312;2022-07-26T01:35:18;20.90;91.30
3648;DHT22;1840;48.892;15.312;2022-07-26T01:37:48;20.90;91.60
3648;DHT22;1840;48.892;15.312;2022-07-26T01:40:16;20.80;92.00
3648;DHT22;1840;48.892;15.312;2022-07-26T01:42:44;20.70;92.40
3648;DHT22;1840;48.892;15.312;2022-07-26T01:45:12;20.50;92.90
3648;DHT22;1840;48.892;15.312;2022-07-26T01:47:40;20.30;93.40
3648;DHT22;1840;48.892;15.312;2022-07-26T01:50:09;20.20;93.80
3648;DHT22;1840;48.892;15.312;2022-07-26T01:52:37;20.00;93.90
3648;DHT22;1840;48.892;15.312;2022-07-26T01:55:08;20.00;94.30
3648;DHT22;1840;48.892;15.312;2022-07-26T01:57:36;19.80;94.50
3648;DHT22;1840;48.892;15.312;2022-07-26T02:00:06;19.70;94.50
3648;DHT22;1840;48.892;15.312;2022-07-26T02:02:34;19.80;94.80
3648;DHT22;1840;48.892;15.312;2022-07-26T02:05:03;19.70;94.70
3648;DHT22;1840;48.892;15.312;2022-07-26T02:07:32;19.60;94.90
3648;DHT22;1840;48.892;15.312;2022-07-26T02:10:07;19.60;94.90
3648;DHT22;1840;48.892;15.312;2022-07-26T02:12:38;19.50;94.80
3648;DHT22;1840;48.892;15.312;2022-07-26T02:15:07;19.60;95.30
3648;DHT22;1840;48.892;15.312;2022-07-26T02:17:36;19.60;95.60
3648;DHT22;1840;48.892;15.312;2022-07-26T02:20:05;19.50;95.60
3648;DHT22;1840;48.892;15.312;2022-07-26T02:22:36;19.50;95.80
3648;DHT22;1840;48.892;15.312;2022-07-26T02:25:05;19.40;96.00
3648;DHT22;1840;48.892;15.312;2022-07-26T02:27:36;19.30;95.70
3648;DHT22;1840;48.892;15.312;2022-07-26T02:30:04;19.20;95.90
3648;DHT22;1840;48.892;15.312;2022-07-26T02:32:32;19.20;96.10
3648;DHT22;1840;48.892;15.312;2022-07-26T02:35:01;19.10;96.10
3648;DHT22;1840;48.892;15.312;2022-07-26T02:37:29;19.00;96.00
3648;DHT22;1840;48.892;15.312;2022-07-26T02:40:04;19.10;96.20
3648;DHT22;1840;48.892;15.312;2022-07-26T02:42:32;19.10;96.30
3648;DHT22;1840;48.892;15.312;2022-07-26T02:45:01;19.00;96.50
3648;DHT22;1840;48.892;15.312;2022-07-26T02:47:33;18.90;96.50
3648;DHT22;1840;48.892;15.312;2022-07-26T02:50:01;18.80;96.50
3648;DHT22;1840;48.892;15.312;2022-07-26T02:52:29;18.80;96.60
3648;DHT22;1840;48.892;15.312;2022-07-26T02:54:57;18.70;96.30
3648;DHT22;1840;48.892;15.312;2022-07-26T02:57:25;18.60;96.50
3648;DHT22;1840;48.892;15.312;2022-07-26T02:59:53;18.50;96.50
3648;DHT22;1840;48.892;15.312;2022-07-26T03:02:23;18.50;96.60
3648;DHT22;1840;48.892;15.312;2022-07-26T03:04:51;18.60;96.50
3648;DHT22;1840;48.892;15.312;2022-07-26T03:07:19;18.70;96.50
3648;DHT22;1840;48.892;15.312;2022-07-26T03:09:47;18.80;96.50
3648;DHT22;1840;48.892;15.312;2022-07-26T03:12:15;18.80;96.50
3648;DHT22;1840;48.892;15.312;2022-07-26T03:14:43;18.80;96.40
3648;DHT22;1840;48.892;15.312;2022-07-26T03:17:11;18.80;96.50
3648;DHT22;1840;48.892;15.312;2022-07-26T03:19:41;18.60;96.30
3648;DHT22;1840;48.892;15.312;2022-07-26T03:22:10;18.50;96.30
3648;DHT22;1840;48.892;15.312;2022-07-26T03:24:38;18.40;96.30
3648;DHT22;1840;48.892;15.312;2022-07-26T03:27:06;18.30;96.50
3648;DHT22;1840;48.892;15.312;2022-07-26T03:29:34;18.40;96.50
3648;DHT22;1840;48.892;15.312;2022-07-26T03:32:03;18.30;96.20
3648;DHT22;1840;48.892;15.312;2022-07-26T03:34:32;18.10;96.60
3648;DHT22;1840;48.892;15.312;2022-07-26T03:37:01;18.20;96.70
3648;DHT22;1840;48.892;15.312;2022-07-26T03:39:30;18.30;96.70
3648;DHT22;1840;48.892;15.312;2022-07-26T03:41:58;18.30;96.80
3648;DHT22;1840;48.892;15.312;2022-07-26T03:44:26;18.30;96.80
3648;DHT22;1840;48.892;15.312;2022-07-26T03:46:54;18.30;96.80
3648;DHT22;1840;48.892;15.312;2022-07-26T03:49:22;18.30;96.80
3648;DHT22;1840;48.892;15.312;2022-07-26T03:51:50;18.20;96.60
3648;DHT22;1840;48.892;15.312;2022-07-26T03:54:19;18.30;96.90
3648;DHT22;1840;48.892;15.312;2022-07-26T03:56:47;18.20;96.60
3648;DHT22;1840;48.892;15.312;2022-07-26T03:59:15;18.20;96.70
3648;DHT22;1840;48.892;15.312;2022-07-26T04:01:45;18.00;97.00
3648;DHT22;1840;48.892;15.312;2022-07-26T04:04:15;18.10;97.40
3648;DHT22;1840;48.892;15.312;2022-07-26T04:06:47;18.00;97.00
3648;DHT22;1840;48.892;15.312;2022-07-26T04:09:16;18.00;97.10
3648;DHT22;1840;48.892;15.312;2022-07-26T04:11:45;18.00;97.20
3648;DHT22;1840;48.892;15.312;2022-07-26T04:14:14;18.00;97.20
3648;DHT22;1840;48.892;15.312;2022-07-26T04:16:43;18.10;97.10
3648;DHT22;1840;48.892;15.312;2022-07-26T04:19:11;18.00;97.60
3648;DHT22;1840;48.892;15.312;2022-07-26T04:21:39;17.90;97.50
3648;DHT22;1840;48.892;15.312;2022-07-26T04:24:07;17.90;97.50
3648;DHT22;1840;48.892;15.312;2022-07-26T04:26:36;17.80;97.60
3648;DHT22;1840;48.892;15.312;2022-07-26T04:29:06;17.90;97.70
3648;DHT22;1840;48.892;15.312;2022-07-26T04:31:36;17.90;97.90
3648;DHT22;1840;48.892;15.312;2022-07-26T04:34:04;17.90;97.90
3648;DHT22;1840;48.892;15.312;2022-07-26T04:36:33;17.90;97.90
3648;DHT22;1840;48.892;15.312;2022-07-26T04:39:01;17.90;97.80
3648;DHT22;1840;48.892;15.312;2022-07-26T04:41:29;18.00;98.10
3648;DHT22;1840;48.892;15.312;2022-07-26T04:43:57;17.90;98.10
3648;DHT22;1840;48.892;15.312;2022-07-26T04:46:27;17.90;98.30
3648;DHT22;1840;48.892;15.312;2022-07-26T04:48:55;17.80;98.50
3648;DHT22;1840;48.892;15.312;2022-07-26T04:51:23;17.80;98.60
3648;DHT22;1840;48.892;15.312;2022-07-26T04:53:52;17.80;98.50
3648;DHT22;1840;48.892;15.312;2022-07-26T04:56:20;17.80;98.50
3648;DHT22;1840;48.892;15.312;2022-07-26T04:58:49;17.80;98.80
3648;DHT22;1840;48.892;15.312;2022-07-26T05:01:17;17.90;98.90
3648;DHT22;1840;48.892;15.312;2022-07-26T05:03:46;17.80;99.00
3648;DHT22;1840;48.892;15.312;2022-07-26T05:06:14;17.80;99.10
3648;DHT22;1840;48.892;15.312;2022-07-26T05:08:43;17.70;99.00
3648;DHT22;1840;48.892;15.312;2022-07-26T05:11:11;17.70;99.10
3648;DHT22;1840;48.892;15.312;2022-07-26T05:13:39;17.70;99.00
3648;DHT22;1840;48.892;15.312;2022-07-26T05:16:07;17.70;99.30
3648;DHT22;1840;48.892;15.312;2022-07-26T05:18:38;17.80;99.20
3648;DHT22;1840;48.892;15.312;2022-07-26T05:21:16;17.60;99.20
3648;DHT22;1840;48.892;15.312;2022-07-26T05:23:45;17.60;99.20
3648;DHT22;1840;48.892;15.312;2022-07-26T05:26:13;17.70;99.30
3648;DHT22;1840;48.892;15.312;2022-07-26T05:28:42;17.70;99.30
3648;DHT22;1840;48.892;15.312;2022-07-26T05:31:10;17.70;99.40
3648;DHT22;1840;48.892;15.312;2022-07-26T05:33:38;17.70;99.60
3648;DHT22;1840;48.892;15.312;2022-07-26T05:36:06;17.70;99.60
3648;DHT22;1840;48.892;15.312;2022-07-26T05:38:36;17.70;99.80
3648;DHT22;1840;48.892;15.312;2022-07-26T05:41:05;17.70;99.90
3648;DHT22;1840;48.892;15.312;2022-07-26T05:43:33;17.70;99.80
3648;DHT22;1840;48.892;15.312;2022-07-26T05:46:08;17.70;99.90
3648;DHT22;1840;48.892;15.312;2022-07-26T05:48:37;17.80;99.90
3648;DHT22;1840;48.892;15.312;2022-07-26T05:51:05;17.70;99.90
3648;DHT22;1840;48.892;15.312;2022-07-26T05:53:33;17.70;99.90
3648;DHT22;1840;48.892;15.312;2022-07-26T05:56:03;17.70;99.90
3648;DHT22;1840;48.892;15.312;2022-07-26T05:58:32;17.60;99.90
3648;DHT22;1840;48.892;15.312;2022-07-26T06:01:00;17.60;99.90
3648;DHT22;1840;48.892;15.312;2022-07-26T06:03:28;17.60;99.90
3648;DHT22;1840;48.892;15.312;2022-07-26T06:05:58;17.60;99.90
3648;DHT22;1840;48.892;15.312;2022-07-26T06:08:26;17.60;99.90
3648;DHT22;1840;48.892;15.312;2022-07-26T06:10:54;17.50;99.90
3648;DHT22;1840;48.892;15.312;2022-07-26T06:13:23;17.60;99.90
3648;DHT22;1840;48.892;15.312;2022-07-26T06:15:52;17.70;99.90
3648;DHT22;1840;48.892;15.312;2022-07-26T06:18:20;17.70;99.90
3648;DHT22;1840;48.892;15.312;2022-07-26T06:20:49;17.70;99.90
3648;DHT22;1840;48.892;15.312;2022-07-26T06:23:17;17.70;99.90
3648;DHT22;1840;48.892;15.312;2022-07-26T06:26:01;17.60;99.90
3648;DHT22;1840;48.892;15.312;2022-07-26T06:28:30;17.50;99.90
3648;DHT22;1840;48.892;15.312;2022-07-26T06:30:59;17.50;99.90
3648;DHT22;1840;48.892;15.312;2022-07-26T06:33:27;17.50;99.90
3648;DHT22;1840;48.892;15.312;2022-07-26T06:35:55;17.60;99.90
3648;DHT22;1840;48.892;15.312;2022-07-26T06:38:23;17.60;99.90
3648;DHT22;1840;48.892;15.312;2022-07-26T06:40:51;17.60;99.90
3648;DHT22;1840;48.892;15.312;2022-07-26T06:43:20;17.70;99.90
3648;DHT22;1840;48.892;15.312;2022-07-26T06:45:50;17.70;99.90
3648;DHT22;1840;48.892;15.312;2022-07-26T06:48:18;17.80;99.90
3648;DHT22;1840;48.892;15.312;2022-07-26T06:50:47;17.80;99.90
3648;DHT22;1840;48.892;15.312;2022-07-26T06:53:15;17.80;99.90
3648;DHT22;1840;48.892;15.312;2022-07-26T06:55:44;17.90;99.90
3648;DHT22;1840;48.892;15.312;2022-07-26T06:58:12;17.90;99.90
3648;DHT22;1840;48.892;15.312;2022-07-26T07:00:40;17.90;99.90
3648;DHT22;1840;48.892;15.312;2022-07-26T07:03:09;18.00;99.90
3648;DHT22;1840;48.892;15.312;2022-07-26T07:05:37;18.10;99.90
3648;DHT22;1840;48.892;15.312;2022-07-26T07:08:05;18.10;99.90
3648;DHT22;1840;48.892;15.312;2022-07-26T07:10:36;18.20;99.90
3648;DHT22;1840;48.892;15.312;2022-07-26T07:13:04;18.10;99.60
3648;DHT22;1840;48.892;15.312;2022-07-26T07:15:32;18.10;99.80
3648;DHT22;1840;48.892;15.312;2022-07-26T07:18:00;18.20;99.70
3648;DHT22;1840;48.892;15.312;2022-07-26T07:20:29;18.20;99.90
3648;DHT22;1840;48.892;15.312;2022-07-26T07:22:57;18.30;99.80
3648;DHT22;1840;48.892;15.312;2022-07-26T07:25:31;18.40;99.50
3648;DHT22;1840;48.892;15.312;2022-07-26T07:28:00;18.40;99.60
3648;DHT22;1840;48.892;15.312;2022-07-26T07:30:28;18.50;99.60
3648;DHT22;1840;48.892;15.312;2022-07-26T07:32:56;18.60;99.50
3648;DHT22;1840;48.892;15.312;2022-07-26T07:35:24;18.60;99.50
3648;DHT22;1840;48.892;15.312;2022-07-26T07:38:00;18.80;99.40
3648;DHT22;1840;48.892;15.312;2022-07-26T07:40:28;18.80;99.40
3648;DHT22;1840;48.892;15.312;2022-07-26T07:42:56;18.90;99.40
3648;DHT22;1840;48.892;15.312;2022-07-26T07:45:24;19.00;99.30
3648;DHT22;1840;48.892;15.312;2022-07-26T07:47:53;19.10;99.30
3648;DHT22;1840;48.892;15.312;2022-07-26T07:50:21;19.30;99.20
3648;DHT22;1840;48.892;15.312;2022-07-26T07:52:54;19.40;99.00
3648;DHT22;1840;48.892;15.312;2022-07-26T07:55:26;19.50;98.90
3648;DHT22;1840;48.892;15.312;2022-07-26T07:58:13;19.60;98.70
3648;DHT22;1840;48.892;15.312;2022-07-26T08:00:45;19.80;98.80
3648;DHT22;1840;48.892;15.312;2022-07-26T08:03:14;19.70;98.30
3648;DHT22;1840;48.892;15.312;2022-07-26T08:05:44;19.80;97.80
3648;DHT22;1840;48.892;15.312;2022-07-26T08:08:16;19.70;97.70
3648;DHT22;1840;48.892;15.312;2022-07-26T08:10:45;19.80;98.30
3648;DHT22;1840;48.892;15.312;2022-07-26T08:13:18;20.00;98.20
3648;DHT22;1840;48.892;15.312;2022-07-26T08:15:47;20.10;97.90
3648;DHT22;1840;48.892;15.312;2022-07-26T08:18:16;20.20;98.10
3648;DHT22;1840;48.892;15.312;2022-07-26T08:20:47;20.30;97.90
3648;DHT22;1840;48.892;15.312;2022-07-26T08:23:15;20.40;97.90
3648;DHT22;1840;48.892;15.312;2022-07-26T08:25:45;20.50;97.80
3648;DHT22;1840;48.892;15.312;2022-07-26T08:28:24;20.60;97.70
3648;DHT22;1840;48.892;15.312;2022-07-26T08:31:12;20.70;97.50
3648;DHT22;1840;48.892;15.312;2022-07-26T08:33:40;20.70;97.20
3648;DHT22;1840;48.892;15.312;2022-07-26T08:36:13;20.70;97.00
3648;DHT22;1840;48.892;15.312;2022-07-26T08:38:41;20.70;96.80
3648;DHT22;1840;48.892;15.312;2022-07-26T08:41:10;20.60;96.60
3648;DHT22;1840;48.892;15.312;2022-07-26T08:43:38;20.50;96.60
3648;DHT22;1840;48.892;15.312;2022-07-26T08:46:20;20.40;96.30
3648;DHT22;1840;48.892;15.312;2022-07-26T08:48:52;20.40;96.10
3648;DHT22;1840;48.892;15.312;2022-07-26T08:51:23;20.30;96.00
3648;DHT22;1840;48.892;15.312;2022-07-26T08:53:53;20.30;96.70
3648;DHT22;1840;48.892;15.312;2022-07-26T08:56:33;20.20;95.90
3648;DHT22;1840;48.892;15.312;2022-07-26T08:59:11;20.10;95.90
3648;DHT22;1840;48.892;15.312;2022-07-26T09:01:54;19.90;96.10
3648;DHT22;1840;48.892;15.312;2022-07-26T09:04:24;20.00;96.30
3648;DHT22;1840;48.892;15.312;2022-07-26T09:07:11;20.00;96.10
3648;DHT22;1840;48.892;15.312;2022-07-26T09:09:55;20.10;96.30
3648;DHT22;1840;48.892;15.312;2022-07-26T09:12:27;20.10;95.90
3648;DHT22;1840;48.892;15.312;2022-07-26T09:14:56;20.10;95.60
3648;DHT22;1840;48.892;15.312;2022-07-26T09:17:36;20.10;95.70
3648;DHT22;1840;48.892;15.312;2022-07-26T09:20:08;20.30;96.20
3648;DHT22;1840;48.892;15.312;2022-07-26T09:22:37;20.50;96.10
3648;DHT22;1840;48.892;15.312;2022-07-26T09:25:19;20.40;95.60
3648;DHT22;1840;48.892;15.312;2022-07-26T09:27:50;20.30;95.50
3648;DHT22;1840;48.892;15.312;2022-07-26T09:30:18;20.50;95.70
3648;DHT22;1840;48.892;15.312;2022-07-26T09:32:59;20.70;95.70
3648;DHT22;1840;48.892;15.312;2022-07-26T09:35:29;20.80;95.60
3648;DHT22;1840;48.892;15.312;2022-07-26T09:38:17;20.90;95.50
3648;DHT22;1840;48.892;15.312;2022-07-26T09:40:46;20.60;95.30
3648;DHT22;1840;48.892;15.312;2022-07-26T09:43:18;20.60;95.20
3648;DHT22;1840;48.892;15.312;2022-07-26T09:46:02;20.70;95.40
3648;DHT22;1840;48.892;15.312;2022-07-26T09:48:32;20.70;94.80
3648;DHT22;1840;48.892;15.312;2022-07-26T09:51:37;20.60;94.90
3648;DHT22;1840;48.892;15.312;2022-07-26T09:54:06;20.90;94.90
3648;DHT22;1840;48.892;15.312;2022-07-26T09:56:45;20.90;94.80
3648;DHT22;1840;48.892;15.312;2022-07-26T09:59:17;20.90;94.40
3648;DHT22;1840;48.892;15.312;2022-07-26T10:01:46;20.80;94.70
3648;DHT22;1840;48.892;15.312;2022-07-26T10:04:15;20.80;94.70
3648;DHT22;1840;48.892;15.312;2022-07-26T10:06:43;20.90;94.70
3648;DHT22;1840;48.892;15.312;2022-07-26T10:09:12;21.10;94.70
3648;DHT22;1840;48.892;15.312;2022-07-26T10:11:44;21.20;94.50
3648;DHT22;1840;48.892;15.312;2022-07-26T10:14:35;21.50;93.70
3648;DHT22;1840;48.892;15.312;2022-07-26T10:23:48;20.80;92.90
3648;DHT22;1840;48.892;15.312;2022-07-26T10:26:39;20.80;92.40
3648;DHT22;1840;48.892;15.312;2022-07-26T10:29:22;20.80;93.20
3648;DHT22;1840;48.892;15.312;2022-07-26T10:32:12;20.80;92.90
3648;DHT22;1840;48.892;15.312;2022-07-26T10:34:41;20.70;93.00
3648;DHT22;1840;48.892;15.312;2022-07-26T10:37:19;20.90;93.00
3648;DHT22;1840;48.892;15.312;2022-07-26T10:39:47;20.90;92.80
3648;DHT22;1840;48.892;15.312;2022-07-26T10:42:16;20.80;92.90
3648;DHT22;1840;48.892;15.312;2022-07-26T10:44:44;20.70;92.70
3648;DHT22;1840;48.892;15.312;2022-07-26T10:47:15;20.70;92.90
3648;DHT22;1840;48.892;15.312;2022-07-26T10:49:56;20.60;92.90
3648;DHT22;1840;48.892;15.312;2022-07-26T10:52:25;20.40;92.50
3648;DHT22;1840;48.892;15.312;2022-07-26T10:55:15;20.50;93.00
3648;DHT22;1840;48.892;15.312;2022-07-26T10:57:47;20.40;92.50
3648;DHT22;1840;48.892;15.312;2022-07-26T11:00:21;20.40;93.00
3648;DHT22;1840;48.892;15.312;2022-07-26T11:02:58;20.50;92.80
3648;DHT22;1840;48.892;15.312;2022-07-26T11:05:29;20.50;92.70
3648;DHT22;1840;48.892;15.312;2022-07-26T11:08:00;20.50;93.20
3648;DHT22;1840;48.892;15.312;2022-07-26T11:10:32;20.60;93.50
3648;DHT22;1840;48.892;15.312;2022-07-26T11:13:02;20.70;93.60
3648;DHT22;1840;48.892;15.312;2022-07-26T11:15:31;20.80;93.60
3648;DHT22;1840;48.892;15.312;2022-07-26T11:18:09;20.70;93.70
3648;DHT22;1840;48.892;15.312;2022-07-26T11:20:37;20.80;93.90
3648;DHT22;1840;48.892;15.312;2022-07-26T11:23:21;20.70;93.80
3648;DHT22;1840;48.892;15.312;2022-07-26T11:26:04;20.70;94.00
3648;DHT22;1840;48.892;15.312;2022-07-26T11:28:53;20.60;94.10
3648;DHT22;1840;48.892;15.312;2022-07-26T11:31:24;20.50;93.90
3648;DHT22;1840;48.892;15.312;2022-07-26T11:34:18;20.40;94.10
3648;DHT22;1840;48.892;15.312;2022-07-26T11:36:49;20.30;94.20
3648;DHT22;1840;48.892;15.312;2022-07-26T11:39:21;20.20;93.90
3648;DHT22;1840;48.892;15.312;2022-07-26T11:41:51;20.20;93.80
3648;DHT22;1840;48.892;15.312;2022-07-26T11:44:23;20.20;93.80
3648;DHT22;1840;48.892;15.312;2022-07-26T11:46:51;20.20;93.80
3648;DHT22;1840;48.892;15.312;2022-07-26T11:49:23;20.30;93.70
3648;DHT22;1840;48.892;15.312;2022-07-26T11:52:12;20.30;93.30
3648;DHT22;1840;48.892;15.312;2022-07-26T11:54:51;20.50;92.50
3648;DHT22;1840;48.892;15.312;2022-07-26T11:57:19;20.60;92.00
3648;DHT22;1840;48.892;15.312;2022-07-26T11:59:48;20.80;92.50
3648;DHT22;1840;48.892;15.312;2022-07-26T12:02:18;21.00;92.10
3648;DHT22;1840;48.892;15.312;2022-07-26T12:04:49;20.90;91.80
3648;DHT22;1840;48.892;15.312;2022-07-26T12:07:37;21.00;91.70
3648;DHT22;1840;48.892;15.312;2022-07-26T12:10:05;21.00;91.30
3648;DHT22;1840;48.892;15.312;2022-07-26T12:12:34;21.00;91.50
3648;DHT22;1840;48.892;15.312;2022-07-26T12:15:04;21.10;91.40
3648;DHT22;1840;48.892;15.312;2022-07-26T12:17:33;21.10;91.20
3648;DHT22;1840;48.892;15.312;2022-07-26T12:20:14;21.00;91.10
3648;DHT22;1840;48.892;15.312;2022-07-26T12:22:52;21.10;91.10
3648;DHT22;1840;48.892;15.312;2022-07-26T12:25:25;21.30;91.40
3648;DHT22;1840;48.892;15.312;2022-07-26T12:27:53;21.60;91.00
3648;DHT22;1840;48.892;15.312;2022-07-26T12:30:22;21.80;90.70
3648;DHT22;1840;48.892;15.312;2022-07-26T12:33:00;21.90;89.80
3648;DHT22;1840;48.892;15.312;2022-07-26T12:35:31;21.90;90.00
3648;DHT22;1840;48.892;15.312;2022-07-26T12:38:01;21.90;90.10
3648;DHT22;1840;48.892;15.312;2022-07-26T12:40:38;22.00;90.20
3648;DHT22;1840;48.892;15.312;2022-07-26T12:43:07;22.00;88.60
3648;DHT22;1840;48.892;15.312;2022-07-26T12:45:35;21.80;88.70
3648;DHT22;1840;48.892;15.312;2022-07-26T12:48:07;21.70;89.10
3648;DHT22;1840;48.892;15.312;2022-07-26T12:50:38;21.90;89.60
3648;DHT22;1840;48.892;15.312;2022-07-26T12:53:07;22.00;88.90
3648;DHT22;1840;48.892;15.312;2022-07-26T12:55:38;22.10;87.80
3648;DHT22;1840;48.892;15.312;2022-07-26T12:58:06;21.90;88.60
3648;DHT22;1840;48.892;15.312;2022-07-26T13:00:35;21.80;87.60
3648;DHT22;1840;48.892;15.312;2022-07-26T13:03:03;21.80;89.70
3648;DHT22;1840;48.892;15.312;2022-07-26T13:05:31;21.90;88.40
3648;DHT22;1840;48.892;15.312;2022-07-26T13:08:01;21.90;88.70
3648;DHT22;1840;48.892;15.312;2022-07-26T13:10:29;21.90;88.30
3648;DHT22;1840;48.892;15.312;2022-07-26T13:13:01;22.00;88.10
3648;DHT22;1840;48.892;15.312;2022-07-26T13:15:29;22.00;89.00
3648;DHT22;1840;48.892;15.312;2022-07-26T13:18:02;22.00;89.40
3648;DHT22;1840;48.892;15.312;2022-07-26T13:20:30;22.00;89.50
3648;DHT22;1840;48.892;15.312;2022-07-26T13:23:01;21.90;89.40
3648;DHT22;1840;48.892;15.312;2022-07-26T13:25:29;22.00;89.90
3648;DHT22;1840;48.892;15.312;2022-07-26T13:28:04;22.10;90.00
3648;DHT22;1840;48.892;15.312;2022-07-26T13:30:32;22.20;90.50
3648;DHT22;1840;48.892;15.312;2022-07-26T13:33:00;22.10;90.20
3648;DHT22;1840;48.892;15.312;2022-07-26T13:35:28;22.00;90.60
3648;DHT22;1840;48.892;15.312;2022-07-26T13:37:56;21.60;90.60
3648;DHT22;1840;48.892;15.312;2022-07-26T13:40:26;21.30;91.00
3648;DHT22;1840;48.892;15.312;2022-07-26T13:42:57;21.30;91.20
3648;DHT22;1840;48.892;15.312;2022-07-26T13:45:26;21.30;91.20
3648;DHT22;1840;48.892;15.312;2022-07-26T13:47:55;21.20;91.20
3648;DHT22;1840;48.892;15.312;2022-07-26T13:50:25;21.30;91.70
3648;DHT22;1840;48.892;15.312;2022-07-26T13:52:53;21.20;91.50
3648;DHT22;1840;48.892;15.312;2022-07-26T13:55:22;21.20;92.00
3648;DHT22;1840;48.892;15.312;2022-07-26T13:57:52;21.20;91.40
3648;DHT22;1840;48.892;15.312;2022-07-26T14:00:23;21.10;91.10
3648;DHT22;1840;48.892;15.312;2022-07-26T14:02:51;21.30;91.70
3648;DHT22;1840;48.892;15.312;2022-07-26T14:05:20;21.70;91.60
3648;DHT22;1840;48.892;15.312;2022-07-26T14:07:48;21.90;91.20
3648;DHT22;1840;48.892;15.312;2022-07-26T14:10:16;22.00;91.40
3648;DHT22;1840;48.892;15.312;2022-07-26T14:12:44;22.40;91.50
3648;DHT22;1840;48.892;15.312;2022-07-26T14:15:14;22.40;90.90
3648;DHT22;1840;48.892;15.312;2022-07-26T14:17:48;22.20;90.70
3648;DHT22;1840;48.892;15.312;2022-07-26T14:20:16;22.00;90.70
3648;DHT22;1840;48.892;15.312;2022-07-26T14:22:45;21.90;91.20
3648;DHT22;1840;48.892;15.312;2022-07-26T14:25:14;21.60;91.80
3648;DHT22;1840;48.892;15.312;2022-07-26T14:27:42;21.40;92.30
3648;DHT22;1840;48.892;15.312;2022-07-26T14:30:11;21.40;91.80
3648;DHT22;1840;48.892;15.312;2022-07-26T14:32:41;21.30;92.30
3648;DHT22;1840;48.892;15.312;2022-07-26T14:35:09;21.20;92.50
3648;DHT22;1840;48.892;15.312;2022-07-26T14:37:37;21.10;92.80
3648;DHT22;1840;48.892;15.312;2022-07-26T14:40:13;20.90;93.20
3648;DHT22;1840;48.892;15.312;2022-07-26T14:42:41;21.00;93.80
3648;DHT22;1840;48.892;15.312;2022-07-26T14:45:09;21.00;94.10
3648;DHT22;1840;48.892;15.312;2022-07-26T14:47:38;21.00;94.50
3648;DHT22;1840;48.892;15.312;2022-07-26T14:50:09;21.00;94.50
3648;DHT22;1840;48.892;15.312;2022-07-26T14:52:38;21.10;94.70
3648;DHT22;1840;48.892;15.312;2022-07-26T14:55:07;21.10;94.40
3648;DHT22;1840;48.892;15.312;2022-07-26T14:57:36;21.10;94.50
3648;DHT22;1840;48.892;15.312;2022-07-26T15:00:07;21.20;94.20
3648;DHT22;1840;48.892;15.312;2022-07-26T15:02:38;21.20;94.00
3648;DHT22;1840;48.892;15.312;2022-07-26T15:05:09;21.20;94.20
3648;DHT22;1840;48.892;15.312;2022-07-26T15:07:38;21.40;94.10
3648;DHT22;1840;48.892;15.312;2022-07-26T15:10:07;21.50;94.30
3648;DHT22;1840;48.892;15.312;2022-07-26T15:12:36;21.70;94.10
3648;DHT22;1840;48.892;15.312;2022-07-26T15:15:06;21.80;94.30
3648;DHT22;1840;48.892;15.312;2022-07-26T15:17:35;21.90;94.00
3648;DHT22;1840;48.892;15.312;2022-07-26T15:20:04;21.90;94.40
3648;DHT22;1840;48.892;15.312;2022-07-26T15:22:35;21.80;94.20
3648;DHT22;1840;48.892;15.312;2022-07-26T15:25:03;21.70;94.30
3648;DHT22;1840;48.892;15.312;2022-07-26T15:27:32;21.40;94.10
3648;DHT22;1840;48.892;15.312;2022-07-26T15:30:00;21.40;94.40
3648;DHT22;1840;48.892;15.312;2022-07-26T15:32:36;21.50;93.80
3648;DHT22;1840;48.892;15.312;2022-07-26T15:35:05;21.80;93.70
3648;DHT22;1840;48.892;15.312;2022-07-26T15:37:41;21.80;93.40
3648;DHT22;1840;48.892;15.312;2022-07-26T15:40:11;21.80;93.30
3648;DHT22;1840;48.892;15.312;2022-07-26T15:42:42;21.90;92.90
3648;DHT22;1840;48.892;15.312;2022-07-26T15:45:12;21.90;92.90
3648;DHT22;1840;48.892;15.312;2022-07-26T15:47:42;22.20;92.30
3648;DHT22;1840;48.892;15.312;2022-07-26T15:50:21;22.50;92.30
3648;DHT22;1840;48.892;15.312;2022-07-26T15:52:51;22.40;91.70
3648;DHT22;1840;48.892;15.312;2022-07-26T15:55:19;22.30;91.50
3648;DHT22;1840;48.892;15.312;2022-07-26T15:57:47;22.30;91.30
3648;DHT22;1840;48.892;15.312;2022-07-26T16:00:16;22.30;91.70
3648;DHT22;1840;48.892;15.312;2022-07-26T16:02:44;22.50;91.80
3648;DHT22;1840;48.892;15.312;2022-07-26T16:05:12;22.30;91.40
3648;DHT22;1840;48.892;15.312;2022-07-26T16:07:41;22.20;91.70
3648;DHT22;1840;48.892;15.312;2022-07-26T16:10:11;22.20;91.50
3648;DHT22;1840;48.892;15.312;2022-07-26T16:12:41;22.30;91.60